首页
METAR-TAF:

METAR-TAF

机场 :

克里斯蒂亚诺·罗纳尔多机场

丰沙尔, 馬德拉群岛, 葡萄牙

纬度: 32-41-52N, 经度: 016-46-28W, 海拔: 59米

当前天气观测

该预报发布于22分钟前的01:30 UTC
风速5节,风向,在西转西北之间变化
温度 19°C
湿度 78%
气压 1014 hPa
能见度10公里或以上
散云层高于1500英尺

METAR: LPMA 310130Z 36005KT 290V090 9999 SCT015 19/15 Q1014

时间: 02:52 (01:52 UTC)

预报

该预报发布于2小时和52分钟前的23:00 UTC
预报有效从31日的 00点(UTC)到 31日的 24点(UTC)
风速13节,风向
能见度10公里或以上
散云层高于1500英尺
短暂存在
从 31日的 00点(UTC)到 31日的 24点(UTC)
多云层高于1500英尺
成为
从 31日的 10点(UTC)到 31日的 12点(UTC)
风速10节,风向北转东北
成为
从 31日的 20点(UTC)到 31日的 22点(UTC)
风速5节,风向多变

TAF: LPMA 302300Z 3100/3124 35013KT 9999 SCT015 TEMPO 3100/3124 BKN015 BECMG 3110/3112 02010KT BECMG 3120/3122 VRB05KT

超过4000个机场的气象观测和天气预报(METAR&TAF报告)。

可查询的气象台以黄色和红色小点在地图上表示。

将鼠标移到小点上方,可查看气象台名称。

然后点击查看天气观测和预报。

如需切换地图:点击带黑十字的绿色按钮放大地图;点击带横线的绿色按钮缩小地图;或者点击绿色箭头查看邻近地区的地图。


METAR-TAF: